Time;durP1;ratioP1;P1;durP2;ratioP2;P2;SDS_P1;SDS_P2;PMS_P1;PMS_P2;Temp;Humidity;BMP_temperature;BMP_pressure;BME280_temperature;BME280_humidity;BME280_pressure;Samples;Min_cycle;Max_cycle;Signal;HPM_P1;HPM_P2
2021/09/21 00:01:32;;;;;;;3.00;2.37;;;;;;;;;;4426957;32;20213;-54
2021/09/21 00:03:57;;;;;;;3.42;2.55;;;;;;;;;;4422609;32;20315;-54
2021/09/21 00:06:23;;;;;;;2.20;2.00;;;;;;;;;;4432461;32;20288;-54
2021/09/21 00:08:48;;;;;;;3.12;2.30;;;;;;;;;;4431530;32;20388;-58
2021/09/21 00:11:14;;;;;;;6.32;2.40;;;;;;;;;;4432521;32;20255;-54
2021/09/21 00:13:40;;;;;;;4.82;2.55;;;;;;;;;;4431981;32;20314;-54
2021/09/21 00:16:05;;;;;;;3.95;2.20;;;;;;;;;;4432808;32;20626;-54
2021/09/21 00:18:31;;;;;;;2.35;1.77;;;;;;;;;;4432208;32;20333;-56
2021/09/21 00:20:57;;;;;;;2.75;2.30;;;;;;;;;;4432905;32;20726;-54
2021/09/21 00:23:23;;;;;;;3.53;2.10;;;;;;;;;;4432498;32;20313;-55
2021/09/21 00:25:48;;;;;;;2.80;2.53;;;;;;;;;;4423103;32;20251;-54
2021/09/21 00:28:14;;;;;;;2.33;2.00;;;;;;;;;;4430866;32;20393;-54
2021/09/21 00:30:46;;;;;;;2.92;2.08;;;;;;;;;;4432632;32;20229;-56
2021/09/21 00:33:20;;;;;;;3.33;2.15;;;;;;;;;;4424441;32;20360;-55
2021/09/21 00:35:47;;;;;;;2.47;2.12;;;;;;;;;;4416925;32;20217;-55
2021/09/21 00:38:15;;;;;;;3.25;2.22;;;;;;;;;;4418522;32;20364;-55
2021/09/21 00:40:42;;;;;;;2.87;2.47;;;;;;;;;;4426454;32;20228;-55
2021/09/21 00:43:08;;;;;;;3.80;2.67;;;;;;;;;;4424195;32;20231;-55
2021/09/21 00:45:34;;;;;;;3.95;2.80;;;;;;;;;;4416826;32;20225;-54
2021/09/21 00:48:00;;;;;;;2.95;2.17;;;;;;;;;;4416771;32;20268;-55
2021/09/21 00:50:26;;;;;;;4.05;2.85;;;;;;;;;;4416873;32;20295;-54
2021/09/21 00:52:54;;;;;;;4.87;2.47;;;;;;;;;;4416911;32;20568;-54
2021/09/21 00:55:20;;;;;;;3.65;2.78;;;;;;;;;;4416241;32;20341;-54
2021/09/21 00:57:46;;;;;;;3.30;2.50;;;;;;;;;;4414681;32;20296;-55
2021/09/21 01:00:13;;;;;;;2.53;2.22;;;;;;;;;;4430310;32;20248;-55
2021/09/21 01:02:40;;;;;;;2.92;2.47;;;;;;;;;;4431641;32;20213;-55
2021/09/21 01:05:06;;;;;;;2.53;2.20;;;;;;;;;;4431223;32;20209;-54
2021/09/21 01:07:36;;;;;;;2.28;2.08;;;;;;;;;;4417869;32;20287;-55
2021/09/21 01:10:16;;;;;;;4.65;3.00;;;;;;;;;;4422533;32;20221;-53
2021/09/21 01:12:42;;;;;;;4.72;1.92;;;;;;;;;;4416414;32;20524;-53
2021/09/21 01:15:10;;;;;;;4.62;2.92;;;;;;;;;;4416249;32;20286;-54
2021/09/21 01:17:36;;;;;;;2.55;2.10;;;;;;;;;;4416069;32;20209;-54
2021/09/21 01:20:02;;;;;;;2.97;2.20;;;;;;;;;;4416381;32;20301;-54
2021/09/21 01:22:27;;;;;;;5.35;2.50;;;;;;;;;;4415931;32;20601;-54
2021/09/21 01:24:53;;;;;;;3.35;2.25;;;;;;;;;;4427256;32;20608;-54
2021/09/21 01:27:19;;;;;;;4.65;2.30;;;;;;;;;;4431567;32;20806;-53
2021/09/21 01:29:44;;;;;;;3.35;2.55;;;;;;;;;;4420985;32;20327;-52
2021/09/21 01:32:10;;;;;;;2.72;2.50;;;;;;;;;;4417307;32;20523;-56
2021/09/21 01:34:36;;;;;;;4.47;2.50;;;;;;;;;;4430688;32;20591;-54
2021/09/21 01:37:02;;;;;;;3.28;2.15;;;;;;;;;;4414119;32;20581;-53
2021/09/21 01:39:28;;;;;;;3.62;2.65;;;;;;;;;;4407849;32;20312;-55
2021/09/21 01:41:54;;;;;;;3.08;2.78;;;;;;;;;;4429095;32;20226;-53
2021/09/21 01:44:19;;;;;;;3.62;2.87;;;;;;;;;;4416295;32;20236;-53
2021/09/21 01:46:46;;;;;;;3.30;2.50;;;;;;;;;;4425962;32;20300;-53
2021/09/21 01:49:16;;;;;;;2.12;1.77;;;;;;;;;;4431550;32;20264;-54
2021/09/21 01:51:48;;;;;;;4.32;2.65;;;;;;;;;;4407052;32;20597;-53
2021/09/21 01:54:49;;;;;;;4.37;2.17;;;;;;;;;;4416758;32;20229;-53
2021/09/21 01:59:59;;;;;;;3.15;2.17;;;;;;;;;;4416372;32;20335;-53
2021/09/21 02:02:25;;;;;;;3.00;2.30;;;;;;;;;;4425866;32;20296;-53
2021/09/21 02:04:50;;;;;;;3.65;2.30;;;;;;;;;;4431650;32;20381;-53
2021/09/21 02:07:16;;;;;;;3.78;2.50;;;;;;;;;;4430632;32;20267;-53
2021/09/21 02:09:41;;;;;;;3.85;2.87;;;;;;;;;;4423461;32;20677;-51
2021/09/21 02:12:07;;;;;;;3.72;2.70;;;;;;;;;;4415726;32;20519;-52
2021/09/21 02:14:32;;;;;;;3.15;2.50;;;;;;;;;;4416272;32;20264;-53
2021/09/21 02:16:58;;;;;;;2.78;2.50;;;;;;;;;;4415563;32;20252;-52
2021/09/21 02:19:23;;;;;;;3.05;2.42;;;;;;;;;;4415875;32;20657;-52
2021/09/21 02:21:49;;;;;;;3.35;2.60;;;;;;;;;;4415783;32;20221;-52
2021/09/21 02:24:19;;;;;;;4.53;2.72;;;;;;;;;;4417789;32;20225;-53
2021/09/21 02:26:45;;;;;;;2.83;2.25;;;;;;;;;;4417992;32;20290;-52
2021/09/21 02:29:10;;;;;;;3.67;2.95;;;;;;;;;;4418693;32;20308;-52
2021/09/21 02:31:36;;;;;;;3.50;2.58;;;;;;;;;;4418437;32;20256;-52
2021/09/21 02:34:02;;;;;;;3.65;2.83;;;;;;;;;;4432380;32;20295;-52
2021/09/21 02:36:27;;;;;;;3.15;2.15;;;;;;;;;;4425546;32;20707;-52
2021/09/21 02:38:53;;;;;;;2.58;1.95;;;;;;;;;;4424079;32;20307;-53
2021/09/21 02:41:18;;;;;;;2.87;2.08;;;;;;;;;;4431801;32;20391;-52
2021/09/21 02:43:43;;;;;;;3.25;2.50;;;;;;;;;;4422134;32;20311;-52
2021/09/21 02:46:09;;;;;;;3.22;2.47;;;;;;;;;;4425318;32;20231;-52
2021/09/21 02:48:34;;;;;;;6.00;2.55;;;;;;;;;;4433390;32;20300;-51
2021/09/21 02:51:01;;;;;;;3.35;2.45;;;;;;;;;;4433495;32;20243;-52
2021/09/21 02:53:27;;;;;;;4.20;2.95;;;;;;;;;;4433911;32;20670;-53
2021/09/21 02:55:52;;;;;;;4.18;2.60;;;;;;;;;;4428686;32;20224;-52
2021/09/21 02:58:17;;;;;;;2.62;2.03;;;;;;;;;;4426201;32;20383;-52
2021/09/21 03:00:45;;;;;;;3.85;2.67;;;;;;;;;;4433425;32;20336;-52
2021/09/21 03:03:11;;;;;;;3.08;2.67;;;;;;;;;;4418473;32;20209;-52
2021/09/21 03:05:45;;;;;;;3.12;2.65;;;;;;;;;;4421723;32;20378;-52
2021/09/21 03:08:14;;;;;;;3.35;2.75;;;;;;;;;;4433423;32;20515;-53
2021/09/21 03:18:42;;;;;;;3.97;3.15;;;;;;;;;;4417687;32;20254;-52
2021/09/21 03:21:08;;;;;;;3.30;2.37;;;;;;;;;;4417814;32;20225;-52
2021/09/21 03:23:33;;;;;;;3.83;2.47;;;;;;;;;;4418256;32;20292;-52
2021/09/21 03:25:59;;;;;;;3.17;2.42;;;;;;;;;;4417676;32;20361;-53
2021/09/21 03:28:24;;;;;;;3.65;2.55;;;;;;;;;;4417662;32;20685;-52
2021/09/21 03:30:50;;;;;;;2.47;2.15;;;;;;;;;;4417253;32;20318;-52
2021/09/21 03:33:15;;;;;;;3.10;2.62;;;;;;;;;;4426423;32;20716;-53
2021/09/21 03:35:41;;;;;;;2.80;2.47;;;;;;;;;;4427421;32;20356;-52
2021/09/21 03:38:06;;;;;;;3.03;2.30;;;;;;;;;;4417516;32;20316;-54
2021/09/21 03:40:32;;;;;;;2.80;2.50;;;;;;;;;;4427748;32;20668;-53
2021/09/21 03:42:58;;;;;;;4.93;3.50;;;;;;;;;;4424513;32;20279;-53
2021/09/21 03:45:24;;;;;;;2.87;2.08;;;;;;;;;;4431058;32;20243;-53
2021/09/21 03:47:50;;;;;;;4.28;2.53;;;;;;;;;;4417736;32;20557;-53
2021/09/21 03:50:16;;;;;;;4.10;2.83;;;;;;;;;;4423907;32;20264;-53
2021/09/21 03:52:42;;;;;;;2.53;2.25;;;;;;;;;;4432504;32;20271;-54
2021/09/21 03:55:08;;;;;;;3.67;2.60;;;;;;;;;;4432404;32;20295;-53
2021/09/21 03:57:33;;;;;;;6.20;4.32;;;;;;;;;;4432739;32;20356;-54
2021/09/21 03:59:59;;;;;;;5.22;3.17;;;;;;;;;;4432868;32;20251;-53
2021/09/21 04:02:24;;;;;;;4.20;2.97;;;;;;;;;;4432049;32;20314;-56
2021/09/21 04:04:50;;;;;;;3.08;2.42;;;;;;;;;;4433120;32;20522;-53
2021/09/21 04:07:15;;;;;;;3.47;2.75;;;;;;;;;;4432104;32;20213;-53
2021/09/21 04:09:41;;;;;;;4.22;2.87;;;;;;;;;;4425682;32;20229;-53
2021/09/21 04:12:06;;;;;;;2.97;2.50;;;;;;;;;;4416886;32;20301;-53
2021/09/21 04:14:33;;;;;;;8.75;2.83;;;;;;;;;;4417406;32;20252;-53
2021/09/21 04:16:59;;;;;;;3.95;2.78;;;;;;;;;;4416771;32;20657;-53
2021/09/21 04:19:24;;;;;;;4.97;2.60;;;;;;;;;;4417201;32;20248;-53
2021/09/21 04:21:50;;;;;;;3.15;2.35;;;;;;;;;;4427804;32;20224;-52
2021/09/21 04:24:15;;;;;;;3.40;2.47;;;;;;;;;;4432405;32;20283;-53
2021/09/21 04:26:41;;;;;;;3.35;2.67;;;;;;;;;;4431525;32;20573;-54
2021/09/21 04:29:07;;;;;;;3.37;2.40;;;;;;;;;;4432751;32;20287;-52
2021/09/21 04:31:33;;;;;;;3.60;2.80;;;;;;;;;;4432101;32;20229;-52
2021/09/21 04:33:59;;;;;;;4.62;3.15;;;;;;;;;;4418771;32;20374;-52
2021/09/21 04:36:25;;;;;;;3.10;2.58;;;;;;;;;;4416870;32;20209;-53
2021/09/21 04:38:52;;;;;;;4.28;2.67;;;;;;;;;;4422283;32;20682;-53
2021/09/21 04:41:17;;;;;;;3.53;2.78;;;;;;;;;;4421745;32;20205;-52
2021/09/21 04:43:43;;;;;;;4.68;3.50;;;;;;;;;;4439932;32;20318;-54
2021/09/21 04:46:09;;;;;;;3.35;3.03;;;;;;;;;;4440501;32;20267;-53
2021/09/21 04:48:35;;;;;;;2.67;2.47;;;;;;;;;;4431072;32;20319;-53
2021/09/21 04:51:02;;;;;;;6.35;3.12;;;;;;;;;;4428996;32;20600;-53
2021/09/21 04:53:27;;;;;;;12.68;3.53;;;;;;;;;;4431484;32;20268;-54
2021/09/21 04:55:53;;;;;;;6.28;2.70;;;;;;;;;;4425660;32;20629;-53
2021/09/21 04:58:18;;;;;;;4.03;3.05;;;;;;;;;;4416118;32;20689;-52
2021/09/21 05:00:44;;;;;;;2.78;2.33;;;;;;;;;;4415422;32;20279;-52
2021/09/21 05:03:10;;;;;;;3.40;2.62;;;;;;;;;;4430376;32;20338;-53
2021/09/21 05:05:36;;;;;;;7.15;2.50;;;;;;;;;;4431337;32;20243;-51
2021/09/21 05:08:01;;;;;;;3.55;2.85;;;;;;;;;;4431162;32;20344;-53
2021/09/21 05:10:28;;;;;;;3.53;2.85;;;;;;;;;;4419367;32;20235;-52
2021/09/21 05:12:54;;;;;;;3.28;2.87;;;;;;;;;;4416399;32;20573;-53
2021/09/21 05:15:19;;;;;;;3.28;2.55;;;;;;;;;;4415504;32;20264;-52
2021/09/21 05:17:45;;;;;;;5.18;3.40;;;;;;;;;;4415984;32;20304;-54
2021/09/21 05:20:11;;;;;;;3.30;2.62;;;;;;;;;;4415830;32;20253;-53
2021/09/21 05:22:37;;;;;;;3.83;2.80;;;;;;;;;;4416756;32;20418;-53
2021/09/21 05:25:03;;;;;;;11.73;5.12;;;;;;;;;;4420170;32;20221;-52
2021/09/21 05:27:28;;;;;;;16.70;6.47;;;;;;;;;;4414834;32;20804;-53
2021/09/21 05:29:54;;;;;;;8.63;4.57;;;;;;;;;;4415145;32;20217;-53
2021/09/21 05:32:19;;;;;;;5.93;3.60;;;;;;;;;;4417500;32;20707;-53
2021/09/21 05:34:45;;;;;;;8.00;5.18;;;;;;;;;;4429709;32;20558;-54
2021/09/21 05:37:10;;;;;;;17.23;4.35;;;;;;;;;;4401428;32;20237;-53
2021/09/21 05:39:36;;;;;;;5.18;3.80;;;;;;;;;;4424200;32;20249;-54
2021/09/21 05:42:01;;;;;;;8.88;3.80;;;;;;;;;;4416078;32;20233;-54
2021/09/21 05:44:27;;;;;;;3.58;3.25;;;;;;;;;;4444279;32;20283;-54
2021/09/21 05:46:52;;;;;;;8.93;3.35;;;;;;;;;;4428882;32;20350;-54
2021/09/21 05:49:18;;;;;;;3.37;3.05;;;;;;;;;;4429893;32;20277;-53
2021/09/21 05:51:43;;;;;;;9.48;4.43;;;;;;;;;;4425176;32;20275;-55
2021/09/21 05:54:09;;;;;;;5.32;3.90;;;;;;;;;;4426242;32;20225;-55
2021/09/21 05:56:35;;;;;;;9.77;3.72;;;;;;;;;;4422247;32;20424;-52
2021/09/21 05:59:00;;;;;;;4.95;4.10;;;;;;;;;;4423988;32;20313;-54
2021/09/21 06:01:26;;;;;;;5.70;3.42;;;;;;;;;;4426604;32;20628;-53
2021/09/21 06:03:51;;;;;;;5.18;3.05;;;;;;;;;;4425816;32;20292;-55
2021/09/21 06:06:17;;;;;;;4.82;3.20;;;;;;;;;;4409932;32;20267;-54
2021/09/21 06:08:43;;;;;;;7.75;3.37;;;;;;;;;;4418953;32;20299;-54
2021/09/21 06:11:09;;;;;;;4.78;2.78;;;;;;;;;;4433917;32;20242;-53
2021/09/21 06:13:34;;;;;;;7.10;3.70;;;;;;;;;;4429026;32;20708;-53
2021/09/21 06:16:00;;;;;;;4.90;3.22;;;;;;;;;;4417818;32;20287;-53
2021/09/21 06:18:25;;;;;;;13.50;4.00;;;;;;;;;;4418331;32;20298;-53
2021/09/21 06:20:51;;;;;;;5.60;3.70;;;;;;;;;;4422645;32;20294;-52
2021/09/21 06:23:18;;;;;;;4.15;2.70;;;;;;;;;;4432429;32;20552;-53
2021/09/21 06:25:44;;;;;;;3.08;2.75;;;;;;;;;;4429110;32;20324;-53
2021/09/21 06:28:09;;;;;;;5.15;3.60;;;;;;;;;;4404072;32;20315;-54
2021/09/21 06:30:35;;;;;;;4.62;2.70;;;;;;;;;;4418260;32;20672;-52
2021/09/21 06:33:00;;;;;;;4.87;3.03;;;;;;;;;;4424319;32;20304;-53
2021/09/21 06:35:26;;;;;;;4.50;3.55;;;;;;;;;;4429783;32;20474;-52
2021/09/21 06:37:52;;;;;;;3.80;2.90;;;;;;;;;;4428814;32;20360;-53
2021/09/21 06:40:18;;;;;;;5.07;3.65;;;;;;;;;;4427910;32;20543;-52
2021/09/21 06:42:44;;;;;;;4.37;2.80;;;;;;;;;;4421400;32;20327;-54
2021/09/21 06:45:13;;;;;;;4.55;2.90;;;;;;;;;;4431632;32;20894;-52
2021/09/21 06:47:39;;;;;;;3.47;2.83;;;;;;;;;;4425736;32;20292;-52
2021/09/21 06:50:05;;;;;;;3.03;2.70;;;;;;;;;;4437741;32;20571;-53
2021/09/21 06:52:31;;;;;;;3.50;2.85;;;;;;;;;;4433026;32;20317;-53
2021/09/21 06:54:57;;;;;;;3.60;2.65;;;;;;;;;;4431527;32;20641;-53
2021/09/21 06:57:23;;;;;;;4.20;2.60;;;;;;;;;;4431367;32;20706;-54
2021/09/21 06:59:49;;;;;;;4.00;2.90;;;;;;;;;;4432811;32;20327;-54
2021/09/21 07:02:14;;;;;;;3.50;2.35;;;;;;;;;;4431848;32;20239;-53
2021/09/21 07:04:40;;;;;;;4.37;2.80;;;;;;;;;;4432932;32;20262;-53
2021/09/21 07:07:06;;;;;;;4.93;2.87;;;;;;;;;;4431474;32;20240;-53
2021/09/21 07:09:31;;;;;;;4.65;2.78;;;;;;;;;;4426421;32;20252;-53
2021/09/21 07:11:57;;;;;;;4.47;3.03;;;;;;;;;;4418113;32;20239;-53
2021/09/21 07:14:22;;;;;;;6.90;3.10;;;;;;;;;;4433232;32;20247;-53
2021/09/21 07:16:48;;;;;;;5.70;2.90;;;;;;;;;;4432107;32;20590;-53
2021/09/21 07:19:15;;;;;;;3.58;2.72;;;;;;;;;;4432414;32;20281;-53
2021/09/21 07:21:41;;;;;;;4.03;2.97;;;;;;;;;;4431676;32;20281;-53
2021/09/21 07:24:07;;;;;;;4.87;3.92;;;;;;;;;;4430189;32;20411;-53
2021/09/21 07:26:32;;;;;;;6.85;4.00;;;;;;;;;;4430358;32;20667;-53
2021/09/21 07:28:58;;;;;;;4.28;3.72;;;;;;;;;;4416173;32;20299;-53
2021/09/21 07:31:23;;;;;;;5.32;3.90;;;;;;;;;;4431964;32;20300;-54
2021/09/21 07:33:49;;;;;;;12.82;4.35;;;;;;;;;;4418989;32;20453;-54
2021/09/21 07:36:14;;;;;;;5.45;3.72;;;;;;;;;;4416297;32;20194;-52
2021/09/21 07:38:40;;;;;;;7.82;4.10;;;;;;;;;;4425305;32;20288;-53
2021/09/21 07:41:05;;;;;;;4.80;4.07;;;;;;;;;;4432396;32;20803;-52
2021/09/21 07:43:31;;;;;;;4.95;3.95;;;;;;;;;;4431650;32;20744;-54
2021/09/21 07:45:56;;;;;;;5.90;3.70;;;;;;;;;;4432064;32;20230;-52
2021/09/21 07:48:22;;;;;;;6.95;4.10;;;;;;;;;;4406831;32;20334;-52
2021/09/21 07:50:48;;;;;;;5.30;4.20;;;;;;;;;;4422472;32;20257;-52
2021/09/21 07:53:14;;;;;;;12.07;4.35;;;;;;;;;;4429740;32;20367;-53
2021/09/21 07:55:40;;;;;;;6.10;4.25;;;;;;;;;;4431423;32;20216;-53
2021/09/21 07:58:05;;;;;;;3.97;2.83;;;;;;;;;;4408226;32;20372;-53
2021/09/21 08:00:32;;;;;;;6.95;4.05;;;;;;;;;;4418477;32;20271;-52
2021/09/21 08:02:57;;;;;;;5.22;3.95;;;;;;;;;;4416925;32;20658;-54
2021/09/21 08:05:23;;;;;;;7.15;2.35;;;;;;;;;;4417983;32;20288;-52
2021/09/21 08:07:48;;;;;;;5.75;3.55;;;;;;;;;;4430160;32;20395;-54
2021/09/21 08:10:16;;;;;;;5.18;2.65;;;;;;;;;;4419547;32;20392;-52
2021/09/21 08:12:42;;;;;;;4.75;3.40;;;;;;;;;;4422025;32;20274;-53
2021/09/21 08:15:09;;;;;;;4.40;2.95;;;;;;;;;;4430782;32;20650;-52
2021/09/21 08:17:35;;;;;;;3.67;3.00;;;;;;;;;;4423497;32;20229;-52
2021/09/21 08:20:01;;;;;;;5.93;2.75;;;;;;;;;;4431148;32;20229;-52
2021/09/21 08:22:26;;;;;;;3.97;2.75;;;;;;;;;;4416503;32;20303;-52
2021/09/21 08:24:52;;;;;;;4.62;3.08;;;;;;;;;;4427530;32;20243;-53
2021/09/21 08:27:18;;;;;;;3.50;2.65;;;;;;;;;;4416576;32;20522;-52
2021/09/21 08:29:44;;;;;;;3.60;3.25;;;;;;;;;;4431509;32;20473;-52
2021/09/21 08:32:10;;;;;;;3.78;2.62;;;;;;;;;;4428928;32;20276;-52
2021/09/21 08:34:35;;;;;;;3.05;2.33;;;;;;;;;;4414890;32;20283;-52
2021/09/21 08:37:01;;;;;;;4.55;3.22;;;;;;;;;;4422593;32;20747;-53
2021/09/21 08:39:26;;;;;;;3.78;3.33;;;;;;;;;;4428779;32;20300;-53
2021/09/21 08:41:52;;;;;;;9.57;3.15;;;;;;;;;;4430039;32;20250;-53
2021/09/21 08:44:18;;;;;;;7.15;3.08;;;;;;;;;;4428598;32;20313;-53
2021/09/21 08:46:46;;;;;;;5.00;3.20;;;;;;;;;;4429447;32;20399;-53
2021/09/21 08:49:13;;;;;;;3.05;2.53;;;;;;;;;;4430466;32;20253;-53
2021/09/21 08:51:39;;;;;;;3.97;2.28;;;;;;;;;;4422835;32;20268;-55
2021/09/21 08:54:05;;;;;;;3.40;2.70;;;;;;;;;;4430298;32;20366;-53
2021/09/21 08:56:31;;;;;;;2.80;2.20;;;;;;;;;;4423718;32;20615;-52
2021/09/21 08:58:57;;;;;;;3.33;2.37;;;;;;;;;;4415484;32;20303;-52
2021/09/21 09:01:22;;;;;;;5.55;2.72;;;;;;;;;;4424254;32;20319;-53
2021/09/21 09:03:55;;;;;;;3.25;2.58;;;;;;;;;;4425945;32;20317;-54
2021/09/21 09:06:21;;;;;;;8.82;3.50;;;;;;;;;;4428374;32;20322;-54
2021/09/21 09:08:47;;;;;;;3.15;2.70;;;;;;;;;;4425080;32;20295;-54
2021/09/21 09:11:13;;;;;;;7.22;2.30;;;;;;;;;;4413466;32;20271;-53
2021/09/21 09:13:39;;;;;;;3.08;2.50;;;;;;;;;;4426364;32;20323;-53
2021/09/21 09:16:11;;;;;;;3.20;2.28;;;;;;;;;;4429641;32;20756;-53
2021/09/21 09:18:37;;;;;;;3.72;2.80;;;;;;;;;;4430914;32;20222;-53
2021/09/21 09:21:03;;;;;;;3.87;2.55;;;;;;;;;;4430690;32;20283;-53
2021/09/21 09:23:28;;;;;;;5.20;3.70;;;;;;;;;;4430629;32;20292;-53
2021/09/21 09:25:54;;;;;;;4.00;2.70;;;;;;;;;;4430592;32;20553;-54
2021/09/21 09:28:23;;;;;;;6.32;2.58;;;;;;;;;;4418623;32;20465;-53
2021/09/21 09:30:50;;;;;;;5.78;3.55;;;;;;;;;;4421268;32;20338;-53
2021/09/21 09:33:18;;;;;;;3.45;2.87;;;;;;;;;;4423307;32;20533;-53
2021/09/21 09:35:45;;;;;;;5.18;2.72;;;;;;;;;;4428184;32;20319;-53
2021/09/21 09:38:14;;;;;;;2.10;1.90;;;;;;;;;;4420152;32;20236;-53
2021/09/21 09:40:42;;;;;;;5.18;2.60;;;;;;;;;;4425776;32;20716;-54
2021/09/21 09:43:08;;;;;;;3.22;2.62;;;;;;;;;;4429001;32;20563;-54
2021/09/21 09:45:41;;;;;;;4.80;2.25;;;;;;;;;;4422656;32;20304;-53
2021/09/21 09:48:10;;;;;;;5.28;2.60;;;;;;;;;;4426920;32;20221;-53
2021/09/21 09:50:42;;;;;;;3.35;2.65;;;;;;;;;;4432276;32;20240;-53
2021/09/21 09:53:13;;;;;;;6.70;3.05;;;;;;;;;;4431499;32;20640;-53
2021/09/21 09:55:44;;;;;;;3.53;2.58;;;;;;;;;;4421666;32;20323;-53
2021/09/21 09:58:11;;;;;;;3.08;2.40;;;;;;;;;;4426909;32;20685;-53
2021/09/21 10:00:37;;;;;;;3.10;2.35;;;;;;;;;;4437212;32;20669;-52
2021/09/21 10:03:04;;;;;;;5.78;2.70;;;;;;;;;;4420427;32;20299;-53
2021/09/21 10:05:32;;;;;;;4.12;2.47;;;;;;;;;;4427540;32;20636;-53
2021/09/21 10:07:58;;;;;;;3.80;3.22;;;;;;;;;;4422141;32;20297;-54
2021/09/21 10:10:28;;;;;;;4.25;2.80;;;;;;;;;;4424589;32;20225;-54
2021/09/21 10:12:54;;;;;;;4.25;3.10;;;;;;;;;;4430617;32;20379;-54
2021/09/21 10:15:20;;;;;;;2.50;2.30;;;;;;;;;;4422465;32;20293;-54
2021/09/21 10:17:53;;;;;;;3.95;2.95;;;;;;;;;;4421732;32;20319;-55
2021/09/21 10:20:20;;;;;;;2.80;2.33;;;;;;;;;;4430469;32;20350;-56
2021/09/21 10:22:53;;;;;;;3.87;2.25;;;;;;;;;;4423048;32;20229;-54
2021/09/21 10:25:27;;;;;;;3.05;2.00;;;;;;;;;;4428396;32;20362;-55
2021/09/21 10:27:53;;;;;;;3.45;2.70;;;;;;;;;;4435910;32;20204;-54
2021/09/21 10:30:21;;;;;;;3.58;2.53;;;;;;;;;;4427590;32;20416;-53
2021/09/21 10:32:48;;;;;;;3.47;2.70;;;;;;;;;;4428387;32;20315;-54
2021/09/21 10:35:17;;;;;;;4.22;2.42;;;;;;;;;;4420874;32;20379;-54
2021/09/21 10:37:43;;;;;;;3.22;2.80;;;;;;;;;;4431899;32;20620;-53
2021/09/21 10:40:10;;;;;;;3.58;2.75;;;;;;;;;;4428827;32;20332;-53
2021/09/21 10:42:48;;;;;;;2.78;2.25;;;;;;;;;;4431896;32;20525;-54
2021/09/21 10:45:24;;;;;;;2.80;2.50;;;;;;;;;;4424944;32;20424;-53
2021/09/21 10:48:05;;;;;;;3.37;2.22;;;;;;;;;;4418207;32;20273;-53
2021/09/21 10:50:40;;;;;;;2.95;2.30;;;;;;;;;;4428759;32;20349;-53
2021/09/21 10:53:07;;;;;;;3.83;2.72;;;;;;;;;;4420177;32;20318;-54
2021/09/21 10:55:38;;;;;;;2.53;2.17;;;;;;;;;;4421114;32;20228;-54
2021/09/21 10:58:05;;;;;;;2.12;1.90;;;;;;;;;;4421509;32;20487;-54
2021/09/21 11:00:34;;;;;;;2.42;2.17;;;;;;;;;;4428448;32;20251;-53
2021/09/21 11:03:01;;;;;;;3.08;1.90;;;;;;;;;;4417854;32;20713;-53
2021/09/21 11:05:26;;;;;;;2.40;2.17;;;;;;;;;;4420534;32;20228;-53
2021/09/21 11:07:53;;;;;;;2.33;1.87;;;;;;;;;;4423125;32;20758;-54
2021/09/21 11:10:20;;;;;;;6.70;2.50;;;;;;;;;;4422867;32;20335;-55
2021/09/21 11:12:50;;;;;;;3.92;2.25;;;;;;;;;;4429769;32;20261;-54
2021/09/21 11:15:18;;;;;;;2.90;2.22;;;;;;;;;;4422442;32;20711;-53
2021/09/21 11:17:43;;;;;;;2.72;2.20;;;;;;;;;;4430863;32;20307;-54
2021/09/21 11:20:09;;;;;;;3.58;2.33;;;;;;;;;;4429865;32;20225;-54
2021/09/21 11:22:37;;;;;;;2.70;2.25;;;;;;;;;;4419531;32;20349;-55
2021/09/21 11:25:08;;;;;;;3.47;2.37;;;;;;;;;;4423984;32;20294;-54
2021/09/21 11:27:36;;;;;;;4.85;2.33;;;;;;;;;;4424469;32;20375;-54
2021/09/21 11:30:08;;;;;;;2.80;2.28;;;;;;;;;;4420583;32;20249;-53
2021/09/21 11:32:34;;;;;;;2.28;2.03;;;;;;;;;;4423795;32;20669;-53
2021/09/21 11:35:08;;;;;;;4.10;2.42;;;;;;;;;;4422068;32;20240;-54
2021/09/21 11:37:34;;;;;;;2.95;2.08;;;;;;;;;;4425899;32;20363;-54
2021/09/21 11:40:00;;;;;;;2.47;2.10;;;;;;;;;;4416801;32;20283;-53
2021/09/21 11:42:31;;;;;;;2.60;2.33;;;;;;;;;;4421214;32;20364;-55
2021/09/21 11:45:00;;;;;;;3.80;1.98;;;;;;;;;;4416905;32;20660;-53
2021/09/21 11:47:38;;;;;;;2.45;2.15;;;;;;;;;;4426075;32;20668;-53
2021/09/21 11:50:11;;;;;;;5.87;2.58;;;;;;;;;;4417548;32;20855;-53
2021/09/21 11:52:37;;;;;;;2.92;2.25;;;;;;;;;;4409627;32;20236;-54
2021/09/21 11:55:08;;;;;;;3.08;2.12;;;;;;;;;;4412428;32;20372;-53
2021/09/21 11:57:36;;;;;;;3.33;2.40;;;;;;;;;;4421607;32;20303;-54
2021/09/21 12:00:06;;;;;;;10.55;2.90;;;;;;;;;;4424282;32;20336;-53
2021/09/21 12:02:34;;;;;;;3.22;2.22;;;;;;;;;;4427310;32;20682;-55
2021/09/21 12:05:00;;;;;;;2.85;1.95;;;;;;;;;;4419947;32;20296;-54
2021/09/21 12:07:26;;;;;;;2.83;2.17;;;;;;;;;;4419526;32;20705;-53
2021/09/21 12:09:53;;;;;;;4.37;2.10;;;;;;;;;;4424337;32;20626;-53
2021/09/21 12:12:22;;;;;;;3.67;2.50;;;;;;;;;;4432491;32;20892;-53
2021/09/21 12:14:56;;;;;;;4.40;2.58;;;;;;;;;;4432274;32;20311;-52
2021/09/21 12:17:22;;;;;;;2.70;2.12;;;;;;;;;;4432485;32;20254;-54
2021/09/21 12:19:48;;;;;;;3.17;2.28;;;;;;;;;;4432293;32;20359;-53
2021/09/21 12:22:20;;;;;;;2.80;1.95;;;;;;;;;;4432709;32;20434;-53
2021/09/21 12:24:46;;;;;;;2.65;2.05;;;;;;;;;;4432028;32;20242;-53
2021/09/21 12:27:14;;;;;;;2.17;1.75;;;;;;;;;;4419184;32;20567;-53
2021/09/21 12:29:40;;;;;;;2.47;1.90;;;;;;;;;;4417117;32;20512;-53
2021/09/21 12:32:06;;;;;;;2.15;1.90;;;;;;;;;;4422667;32;20277;-53
2021/09/21 12:34:33;;;;;;;3.75;2.33;;;;;;;;;;4424051;32;20302;-53
2021/09/21 12:37:00;;;;;;;2.22;1.83;;;;;;;;;;4424032;32;20284;-53
2021/09/21 12:39:33;;;;;;;7.12;2.25;;;;;;;;;;4424206;32;20229;-53
2021/09/21 12:42:01;;;;;;;3.05;2.45;;;;;;;;;;4430827;32;20225;-53
2021/09/21 12:44:27;;;;;;;4.20;2.17;;;;;;;;;;4431927;32;20250;-53
2021/09/21 12:46:56;;;;;;;3.65;2.62;;;;;;;;;;4430317;32;20311;-52
2021/09/21 12:49:22;;;;;;;2.37;1.70;;;;;;;;;;4428854;32;20334;-53
2021/09/21 12:51:51;;;;;;;3.65;2.20;;;;;;;;;;4419777;32;20263;-53
2021/09/21 12:54:21;;;;;;;3.25;1.90;;;;;;;;;;4416416;32;20225;-53
2021/09/21 12:56:52;;;;;;;2.85;2.08;;;;;;;;;;4416445;32;20312;-53
2021/09/21 12:59:21;;;;;;;3.83;2.00;;;;;;;;;;4416928;32;20217;-52
2021/09/21 13:01:47;;;;;;;6.93;2.08;;;;;;;;;;4414193;32;20259;-52
2021/09/21 13:04:13;;;;;;;2.95;1.80;;;;;;;;;;4430584;32;20271;-52
2021/09/21 13:06:39;;;;;;;3.33;1.65;;;;;;;;;;4421322;32;20758;-53
2021/09/21 13:09:06;;;;;;;2.47;1.98;;;;;;;;;;4415755;32;20326;-53
2021/09/21 13:11:31;;;;;;;2.30;1.75;;;;;;;;;;4431167;32;20253;-53
2021/09/21 13:13:58;;;;;;;6.35;2.00;;;;;;;;;;4415941;32;20758;-53
2021/09/21 13:16:23;;;;;;;2.05;1.62;;;;;;;;;;4430417;32;20592;-53
2021/09/21 13:18:51;;;;;;;2.50;1.52;;;;;;;;;;4429117;32;20288;-53
2021/09/21 13:21:17;;;;;;;2.60;1.70;;;;;;;;;;4430381;32;20681;-53
2021/09/21 13:23:43;;;;;;;5.35;2.05;;;;;;;;;;4431367;32;20286;-53
2021/09/21 13:26:08;;;;;;;2.85;2.12;;;;;;;;;;4425504;32;20226;-54
2021/09/21 13:28:34;;;;;;;2.58;1.95;;;;;;;;;;4415940;32;20677;-54
2021/09/21 13:30:59;;;;;;;4.30;1.98;;;;;;;;;;4429292;32;20248;-54
2021/09/21 13:33:25;;;;;;;3.17;2.10;;;;;;;;;;4422784;32;20296;-52
2021/09/21 13:35:51;;;;;;;2.65;1.80;;;;;;;;;;4416112;32;20240;-53
2021/09/21 13:38:17;;;;;;;3.95;2.05;;;;;;;;;;4416115;32;20311;-57
2021/09/21 13:40:43;;;;;;;3.05;1.98;;;;;;;;;;4421583;32;20221;-54
2021/09/21 13:43:09;;;;;;;2.90;1.80;;;;;;;;;;4431908;32;20287;-53
2021/09/21 13:45:34;;;;;;;2.20;1.90;;;;;;;;;;4431654;32;20355;-53
2021/09/21 13:48:00;;;;;;;3.25;2.30;;;;;;;;;;4427714;32;20339;-53
2021/09/21 13:50:26;;;;;;;2.45;1.95;;;;;;;;;;4431052;32;20279;-54
2021/09/21 13:52:52;;;;;;;2.45;2.00;;;;;;;;;;4430893;32;20777;-54
2021/09/21 13:55:19;;;;;;;3.00;2.45;;;;;;;;;;4425683;32;20221;-54
2021/09/21 13:57:45;;;;;;;3.65;2.58;;;;;;;;;;4426608;32;20298;-53
2021/09/21 14:00:22;;;;;;;3.42;1.87;;;;;;;;;;4413374;32;20234;-53
2021/09/21 14:02:49;;;;;;;3.72;2.47;;;;;;;;;;4415139;32;20233;-54
2021/09/21 14:05:15;;;;;;;3.05;2.37;;;;;;;;;;4431722;32;20289;-53
2021/09/21 14:07:41;;;;;;;3.05;2.40;;;;;;;;;;4416464;32;20240;-54
2021/09/21 14:10:08;;;;;;;2.47;2.03;;;;;;;;;;4424543;32;20585;-53
2021/09/21 14:12:35;;;;;;;2.10;1.87;;;;;;;;;;4431278;32;20439;-53
2021/09/21 14:15:04;;;;;;;3.78;2.15;;;;;;;;;;4431295;32;20263;-53
2021/09/21 14:17:31;;;;;;;3.15;2.30;;;;;;;;;;4431406;32;20213;-53
2021/09/21 14:19:56;;;;;;;4.40;2.08;;;;;;;;;;4433199;32;20326;-53
2021/09/21 14:22:22;;;;;;;3.47;2.33;;;;;;;;;;4433917;32;20631;-53
2021/09/21 14:24:48;;;;;;;2.30;1.92;;;;;;;;;;4434492;32;20342;-54
2021/09/21 14:27:13;;;;;;;1.98;1.73;;;;;;;;;;4423927;32;20316;-53
2021/09/21 14:29:39;;;;;;;2.92;2.30;;;;;;;;;;4432292;32;20271;-53
2021/09/21 14:32:05;;;;;;;3.80;2.50;;;;;;;;;;4433273;32;20221;-54
2021/09/21 14:34:31;;;;;;;1.85;1.60;;;;;;;;;;4423731;32;20553;-54
2021/09/21 14:36:57;;;;;;;2.85;2.08;;;;;;;;;;4432156;32;20503;-54
2021/09/21 14:39:25;;;;;;;3.30;1.87;;;;;;;;;;4424519;32;20241;-53
2021/09/21 14:41:51;;;;;;;2.40;1.83;;;;;;;;;;4424197;32;20244;-54
2021/09/21 14:44:17;;;;;;;2.08;1.75;;;;;;;;;;4424942;32;20287;-57
2021/09/21 14:46:43;;;;;;;2.10;1.90;;;;;;;;;;4429924;32;20245;-53
2021/09/21 14:49:11;;;;;;;3.65;1.77;;;;;;;;;;4420502;32;20771;-55
2021/09/21 14:51:38;;;;;;;2.00;1.70;;;;;;;;;;4431330;32;20308;-53